createdAt,value
2023-05-09T00:01:14.325Z,10.33
2023-05-09T00:03:43.143Z,9.80
2023-05-09T00:06:10.041Z,10.60
2023-05-09T00:08:39.405Z,10.60
2023-05-09T00:11:08.435Z,11.60
2023-05-09T00:13:35.987Z,11.63
2023-05-09T00:16:07.674Z,11.10
2023-05-09T00:18:36.900Z,11.30
2023-05-09T00:21:06.282Z,13.10
2023-05-09T00:23:33.039Z,11.27
2023-05-09T00:25:59.934Z,11.70
2023-05-09T00:28:31.594Z,11.07
2023-05-09T00:30:58.757Z,12.37
2023-05-09T00:33:28.169Z,11.30
2023-05-09T00:35:57.353Z,10.83
2023-05-09T00:38:24.341Z,10.13
2023-05-09T00:40:51.178Z,11.50
2023-05-09T00:43:23.322Z,10.97
2023-05-09T00:45:50.297Z,11.63
2023-05-09T00:48:17.488Z,11.33
2023-05-09T00:50:47.797Z,12.03
2023-05-09T00:53:15.061Z,11.60
2023-05-09T00:55:44.063Z,10.80
2023-05-09T00:58:16.090Z,10.70
2023-05-09T01:00:50.439Z,10.37
2023-05-09T01:03:23.065Z,11.07
2023-05-09T01:05:56.976Z,10.97
2023-05-09T01:08:28.552Z,10.90
2023-05-09T01:11:07.352Z,11.40
2023-05-09T01:13:36.359Z,10.90
2023-05-09T01:16:15.607Z,12.60
2023-05-09T01:18:45.008Z,10.97
2023-05-09T01:21:17.617Z,12.13
2023-05-09T01:24:07.568Z,11.50
2023-05-09T01:26:43.381Z,15.60
2023-05-09T01:29:36.026Z,13.63
2023-05-09T01:32:16.187Z,11.43
2023-05-09T01:34:44.804Z,11.53
2023-05-09T01:37:16.532Z,12.90
2023-05-09T01:39:50.091Z,12.40
2023-05-09T01:42:20.863Z,12.87
2023-05-09T01:44:50.946Z,12.40
2023-05-09T01:47:22.087Z,12.53
2023-05-09T01:49:52.171Z,13.00
2023-05-09T01:52:20.209Z,11.97
2023-05-09T01:54:48.319Z,15.80
2023-05-09T01:57:15.290Z,11.17
2023-05-09T01:59:44.299Z,12.23
2023-05-09T02:02:14.846Z,12.07
2023-05-09T02:04:43.608Z,12.40
2023-05-09T02:07:11.774Z,12.03
2023-05-09T02:09:41.010Z,13.23
2023-05-09T02:12:10.122Z,13.40
2023-05-09T02:14:39.202Z,12.30
2023-05-09T02:17:11.546Z,10.73
2023-05-09T02:19:38.370Z,16.53
2023-05-09T02:22:10.008Z,11.43
2023-05-09T02:24:37.284Z,12.50
2023-05-09T02:27:07.977Z,11.60
2023-05-09T02:29:40.567Z,10.93
2023-05-09T02:32:16.675Z,12.77
2023-05-09T02:34:45.542Z,14.57
2023-05-09T02:37:15.838Z,15.43
2023-05-09T02:39:47.550Z,11.60
2023-05-09T02:42:22.208Z,12.50
2023-05-09T02:44:51.395Z,11.10
2023-05-09T02:47:23.503Z,13.40
2023-05-09T02:49:55.050Z,13.00
2023-05-09T02:52:22.076Z,12.47
2023-05-09T02:54:49.051Z,11.90
2023-05-09T02:57:15.957Z,12.17
2023-05-09T02:59:42.823Z,11.90
2023-05-09T03:02:16.821Z,11.30
2023-05-09T03:04:44.302Z,12.17
2023-05-09T03:07:13.511Z,13.27
2023-05-09T03:09:42.757Z,11.90
2023-05-09T03:12:12.739Z,11.20
2023-05-09T03:14:41.973Z,12.07
2023-05-09T03:17:17.404Z,11.67
2023-05-09T03:19:44.720Z,11.87
2023-05-09T03:22:11.657Z,10.90
2023-05-09T03:24:47.642Z,13.03
2023-05-09T03:27:14.528Z,11.90
2023-05-09T03:29:41.273Z,11.77
2023-05-09T03:32:10.468Z,13.30
2023-05-09T03:34:37.218Z,12.00
2023-05-09T03:37:08.779Z,12.43
2023-05-09T03:39:39.326Z,12.23
2023-05-09T03:42:11.006Z,12.00
2023-05-09T03:44:42.135Z,12.20
2023-05-09T03:47:08.927Z,13.10
2023-05-09T03:49:39.537Z,11.63
2023-05-09T03:52:08.322Z,18.10
2023-05-09T03:54:36.310Z,14.10
2023-05-09T03:57:05.718Z,11.80
2023-05-09T03:59:34.759Z,11.70
2023-05-09T04:02:01.785Z,12.77
2023-05-09T04:04:29.667Z,13.30
2023-05-09T04:06:57.498Z,12.43
2023-05-09T04:09:28.371Z,13.10
2023-05-09T04:11:55.811Z,13.30
2023-05-09T04:14:27.933Z,12.43
2023-05-09T04:16:54.740Z,12.10
2023-05-09T04:19:21.538Z,12.73
2023-05-09T04:21:48.909Z,13.30
2023-05-09T04:24:15.720Z,13.73
2023-05-09T04:26:48.518Z,12.73
2023-05-09T04:29:22.536Z,12.77
2023-05-09T04:31:55.935Z,11.60
2023-05-09T04:34:30.754Z,12.00
2023-05-09T04:37:05.384Z,11.03
2023-05-09T04:39:32.387Z,12.30
2023-05-09T04:42:05.972Z,12.23
2023-05-09T04:44:36.066Z,11.83
2023-05-09T04:47:09.969Z,13.40
2023-05-09T04:49:43.958Z,14.73
2023-05-09T04:52:10.737Z,13.13
2023-05-09T04:54:37.516Z,12.47
2023-05-09T04:57:17.128Z,12.90
2023-05-09T04:59:46.327Z,12.17
2023-05-09T05:02:15.886Z,11.83
2023-05-09T05:04:43.269Z,13.07
2023-05-09T05:07:10.320Z,13.80
2023-05-09T05:09:37.201Z,16.10
2023-05-09T05:12:09.299Z,12.50
2023-05-09T05:14:39.916Z,15.10
2023-05-09T05:17:12.654Z,11.90
2023-05-09T05:19:41.941Z,13.33
2023-05-09T05:22:11.912Z,12.10
2023-05-09T05:24:41.541Z,11.57
2023-05-09T05:27:11.795Z,11.63
2023-05-09T05:29:40.849Z,11.60
2023-05-09T05:32:10.874Z,10.83
2023-05-09T05:34:40.356Z,11.00
2023-05-09T05:37:09.892Z,12.70
2023-05-09T05:39:39.206Z,9.87
2023-05-09T05:42:06.362Z,8.77
2023-05-09T05:44:35.806Z,12.17
2023-05-09T05:47:05.867Z,12.13
2023-05-09T05:49:37.526Z,10.23
2023-05-09T05:52:04.575Z,11.43
2023-05-09T05:54:36.375Z,9.77
2023-05-09T05:57:03.190Z,10.20
2023-05-09T05:59:34.848Z,9.33
2023-05-09T06:02:04.436Z,10.40
2023-05-09T06:04:36.547Z,11.23
2023-05-09T06:07:11.991Z,11.07
2023-05-09T06:09:43.661Z,11.93
2023-05-09T06:12:12.006Z,10.00
2023-05-09T06:14:43.795Z,8.97
2023-05-09T06:17:16.545Z,10.00
2023-05-09T06:19:43.470Z,13.50
2023-05-09T06:22:13.169Z,12.40
2023-05-09T06:24:42.480Z,10.77
2023-05-09T06:27:09.297Z,20.97
2023-05-09T06:29:38.543Z,10.90
2023-05-09T06:32:05.506Z,10.30
2023-05-09T06:34:39.694Z,9.30
2023-05-09T06:39:40.552Z,10.33
2023-05-09T06:42:14.767Z,8.03
2023-05-09T06:44:44.630Z,10.00
2023-05-09T06:47:13.813Z,9.50
2023-05-09T06:49:45.449Z,8.07
2023-05-09T06:52:17.074Z,9.93
2023-05-09T06:54:43.888Z,8.53
2023-05-09T06:57:15.639Z,7.43
2023-05-09T06:59:45.012Z,12.00
2023-05-09T07:02:14.133Z,7.20
2023-05-09T07:04:46.341Z,9.60
2023-05-09T07:07:18.679Z,9.50
2023-05-09T07:09:50.743Z,7.67
2023-05-09T07:12:27.323Z,9.67
2023-05-09T07:15:01.409Z,9.50
2023-05-09T07:17:31.221Z,8.77
2023-05-09T07:20:02.333Z,10.17
2023-05-09T07:22:36.347Z,10.53
2023-05-09T07:25:09.923Z,11.17
2023-05-09T07:27:41.364Z,11.43
2023-05-09T07:30:14.021Z,11.10
2023-05-09T07:32:43.446Z,11.50
2023-05-09T07:35:12.781Z,13.20
2023-05-09T07:37:40.740Z,12.53
2023-05-09T07:40:15.520Z,12.90
2023-05-09T07:42:50.112Z,12.30
2023-05-09T07:45:18.820Z,12.43
2023-05-09T07:47:53.946Z,13.40
2023-05-09T07:50:27.708Z,13.60
2023-05-09T07:52:57.053Z,13.03
2023-05-09T07:55:26.130Z,17.60
2023-05-09T07:57:55.907Z,12.33
2023-05-09T08:00:24.144Z,13.00
2023-05-09T08:02:54.544Z,11.70
2023-05-09T08:05:26.188Z,13.00
2023-05-09T08:07:52.973Z,16.60
2023-05-09T08:10:22.368Z,11.73
2023-05-09T08:12:51.707Z,11.20
2023-05-09T08:15:21.248Z,13.70
2023-05-09T08:17:50.900Z,11.73
2023-05-09T08:20:22.616Z,10.00
2023-05-09T08:22:51.844Z,11.13
2023-05-09T08:25:21.811Z,15.03
2023-05-09T08:27:52.963Z,18.50
2023-05-09T08:30:27.263Z,12.40
2023-05-09T08:32:58.646Z,9.67
2023-05-09T08:35:27.756Z,11.93
2023-05-09T08:37:57.564Z,13.87
2023-05-09T08:40:29.166Z,11.77
2023-05-09T08:42:58.304Z,10.17
2023-05-09T08:45:31.172Z,11.57
2023-05-09T08:48:03.255Z,11.90
2023-05-09T08:50:37.282Z,15.07
2023-05-09T08:53:12.179Z,12.70
2023-05-09T08:55:44.634Z,13.23
2023-05-09T08:58:19.406Z,11.90
2023-05-09T09:00:47.341Z,11.30
2023-05-09T09:03:19.710Z,12.27
2023-05-09T09:05:51.502Z,17.53
2023-05-09T09:08:18.799Z,13.07
2023-05-09T09:10:50.590Z,14.07
2023-05-09T09:13:18.898Z,12.60
2023-05-09T09:15:48.776Z,13.20
2023-05-09T09:18:24.275Z,12.97
2023-05-09T09:21:17.245Z,15.07
2023-05-09T09:23:48.964Z,10.37
2023-05-09T09:26:18.614Z,12.53
2023-05-09T09:28:45.401Z,12.00
2023-05-09T09:31:23.599Z,14.80
2023-05-09T09:33:54.266Z,11.57
2023-05-09T09:36:32.787Z,12.90
2023-05-09T09:39:07.022Z,9.63
2023-05-09T09:41:40.621Z,11.43
2023-05-09T09:44:19.618Z,11.53
2023-05-09T09:46:54.222Z,13.30
2023-05-09T09:49:26.623Z,12.13
2023-05-09T09:51:57.623Z,11.20
2023-05-09T09:54:34.496Z,10.33
2023-05-09T09:57:11.749Z,11.00
2023-05-09T09:59:43.804Z,14.60
2023-05-09T10:02:12.529Z,12.37
2023-05-09T10:04:45.006Z,21.90
2023-05-09T10:07:14.623Z,11.17
2023-05-09T10:09:44.129Z,11.60
2023-05-09T10:12:19.811Z,13.10
2023-05-09T10:14:48.727Z,13.50
2023-05-09T10:17:22.820Z,11.37
2023-05-09T10:19:53.236Z,16.80
2023-05-09T10:22:26.337Z,10.83
2023-05-09T10:25:06.708Z,13.90
2023-05-09T10:27:36.312Z,12.67
2023-05-09T10:30:15.323Z,12.10
2023-05-09T10:32:48.774Z,12.03
2023-05-09T10:35:17.511Z,10.40
2023-05-09T10:37:46.839Z,10.50
2023-05-09T10:40:16.388Z,15.23
2023-05-09T10:42:46.065Z,11.10
2023-05-09T10:45:13.528Z,10.87
2023-05-09T10:47:44.611Z,15.10
2023-05-09T10:50:13.329Z,10.87
2023-05-09T10:53:17.153Z,12.47
2023-05-09T10:56:06.997Z,14.73
2023-05-09T10:58:36.499Z,13.20
2023-05-09T11:01:10.948Z,15.80
2023-05-09T11:03:58.217Z,12.70
2023-05-09T11:06:44.464Z,14.27
2023-05-09T11:09:38.315Z,13.17
2023-05-09T11:12:07.381Z,13.40
2023-05-09T11:14:45.967Z,13.60
2023-05-09T11:17:17.013Z,14.67
2023-05-09T11:19:48.356Z,13.13
2023-05-09T11:22:24.816Z,16.73
2023-05-09T11:25:02.525Z,12.60
2023-05-09T11:27:41.395Z,14.27
2023-05-09T11:30:09.663Z,14.17
2023-05-09T11:33:06.966Z,13.70
2023-05-09T11:35:37.026Z,13.80
2023-05-09T11:38:06.964Z,11.60
2023-05-09T11:40:42.306Z,13.23
2023-05-09T11:43:09.709Z,15.70
2023-05-09T11:45:37.297Z,13.50
2023-05-09T11:48:11.628Z,13.90
2023-05-09T11:50:38.451Z,16.70
2023-05-09T11:53:12.967Z,15.43
2023-05-09T11:55:42.309Z,13.10
2023-05-09T11:58:11.457Z,13.67
2023-05-09T12:00:44.550Z,13.40
2023-05-09T12:03:14.447Z,13.93
2023-05-09T12:05:52.722Z,15.37
2023-05-09T12:08:28.620Z,13.93
2023-05-09T12:11:08.445Z,12.97
2023-05-09T12:13:44.480Z,13.67
2023-05-09T12:16:16.987Z,14.90
2023-05-09T12:18:53.161Z,15.17
2023-05-09T12:21:25.067Z,17.07
2023-05-09T12:23:58.730Z,13.50
2023-05-09T12:26:27.998Z,15.40
2023-05-09T12:28:57.168Z,14.10
2023-05-09T12:31:24.172Z,15.83
2023-05-09T12:33:51.085Z,13.67
2023-05-09T12:36:20.163Z,15.67
2023-05-09T12:38:54.307Z,13.37
2023-05-09T12:41:36.940Z,23.10
2023-05-09T12:44:10.970Z,16.07
2023-05-09T12:46:43.933Z,14.27
2023-05-09T12:49:25.496Z,14.17
2023-05-09T12:51:58.767Z,15.90
2023-05-09T12:54:29.203Z,14.20
2023-05-09T12:56:59.095Z,17.53
2023-05-09T12:59:33.488Z,14.57
2023-05-09T13:02:03.418Z,14.90
2023-05-09T13:04:34.978Z,13.17
2023-05-09T13:07:01.833Z,14.93
2023-05-09T13:09:31.647Z,14.67
2023-05-09T13:12:00.712Z,15.93
2023-05-09T13:14:30.303Z,12.70
2023-05-09T13:17:04.037Z,14.47
2023-05-09T13:19:31.097Z,17.07
2023-05-09T13:22:02.677Z,13.73
2023-05-09T13:24:32.776Z,15.20
2023-05-09T13:27:05.983Z,15.20
2023-05-09T13:29:37.259Z,14.33
2023-05-09T13:32:09.620Z,13.93
2023-05-09T13:34:38.689Z,13.67
2023-05-09T13:37:12.739Z,12.80
2023-05-09T13:39:39.523Z,13.50
2023-05-09T13:42:13.741Z,11.00
2023-05-09T13:44:42.971Z,16.90
2023-05-09T13:47:11.294Z,10.93
2023-05-09T13:49:40.249Z,11.70
2023-05-09T13:52:12.197Z,13.80
2023-05-09T13:54:44.195Z,12.07
2023-05-09T13:57:11.352Z,11.80
2023-05-09T13:59:45.992Z,10.90
2023-05-09T14:02:15.210Z,11.57
2023-05-09T14:04:44.982Z,12.73
2023-05-09T14:07:15.010Z,12.57
2023-05-09T14:09:44.237Z,9.60
2023-05-09T14:12:15.368Z,12.70
2023-05-09T14:14:49.151Z,12.10
2023-05-09T14:17:18.483Z,11.40
2023-05-09T14:19:47.429Z,9.87
2023-05-09T14:22:16.535Z,13.57
2023-05-09T14:24:45.604Z,13.00
2023-05-09T14:27:15.064Z,8.73
2023-05-09T14:29:46.677Z,9.00
2023-05-09T14:32:14.733Z,8.43
2023-05-09T14:34:49.712Z,9.37
2023-05-09T14:37:19.556Z,8.83
2023-05-09T14:39:51.064Z,11.87
2023-05-09T14:42:22.627Z,10.50
2023-05-09T14:44:51.910Z,11.30
2023-05-09T14:47:21.303Z,10.47
2023-05-09T14:49:50.607Z,9.40
2023-05-09T14:52:17.921Z,8.07
2023-05-09T14:54:44.640Z,8.73
2023-05-09T14:57:15.924Z,8.37
2023-05-09T14:59:43.104Z,8.30
2023-05-09T15:02:16.822Z,7.90
2023-05-09T15:04:46.572Z,7.60
2023-05-09T15:07:15.604Z,6.70
2023-05-09T15:09:44.599Z,8.83
2023-05-09T15:12:13.712Z,7.40
2023-05-09T15:14:43.273Z,6.80
2023-05-09T15:17:12.800Z,7.17
2023-05-09T15:19:44.401Z,8.60
2023-05-09T15:22:14.433Z,8.20
2023-05-09T15:24:44.412Z,10.70
2023-05-09T15:27:11.270Z,8.40
2023-05-09T15:29:42.048Z,9.03
2023-05-09T15:32:11.364Z,7.63
2023-05-09T15:34:42.964Z,7.93
2023-05-09T15:37:13.213Z,9.37
2023-05-09T15:39:45.776Z,7.33
2023-05-09T15:42:19.317Z,8.10
2023-05-09T15:44:48.563Z,7.33
2023-05-09T15:47:19.943Z,6.83
2023-05-09T15:49:48.932Z,8.13
2023-05-09T15:52:15.738Z,8.77
2023-05-09T15:54:47.422Z,7.20
2023-05-09T15:57:17.772Z,8.23
2023-05-09T15:59:46.973Z,8.37
2023-05-09T16:02:13.779Z,6.73
2023-05-09T16:04:47.785Z,8.77
2023-05-09T16:07:19.679Z,6.60
2023-05-09T16:09:56.202Z,5.40
2023-05-09T16:12:29.224Z,7.63
2023-05-09T16:15:00.622Z,4.93
2023-05-09T16:17:31.778Z,5.93
2023-05-09T16:20:01.101Z,6.73
2023-05-09T16:22:30.462Z,5.40
2023-05-09T16:25:08.228Z,6.10
2023-05-09T16:27:35.282Z,5.67
2023-05-09T16:30:10.207Z,6.50
2023-05-09T16:32:42.642Z,14.97
2023-05-09T16:35:16.736Z,7.40
2023-05-09T16:37:48.160Z,6.13
2023-05-09T16:40:21.228Z,4.97
2023-05-09T16:42:50.292Z,4.83
2023-05-09T16:45:25.181Z,6.83
2023-05-09T16:47:55.850Z,5.40
2023-05-09T16:50:28.966Z,6.67
2023-05-09T16:52:55.808Z,5.27
2023-05-09T16:55:27.118Z,5.73
2023-05-09T16:58:00.974Z,5.00
2023-05-09T17:00:28.207Z,5.50
2023-05-09T17:02:59.651Z,12.13
2023-05-09T17:05:34.850Z,6.10
2023-05-09T17:08:03.831Z,5.07
2023-05-09T17:10:39.584Z,5.13
2023-05-09T17:13:13.040Z,4.50
2023-05-09T17:15:43.033Z,4.80
2023-05-09T17:18:22.074Z,5.27
2023-05-09T17:20:58.954Z,5.43
2023-05-09T17:23:30.638Z,4.83
2023-05-09T17:25:59.806Z,7.83
2023-05-09T17:28:29.223Z,5.23
2023-05-09T17:30:59.331Z,7.30
2023-05-09T17:33:31.636Z,4.90
2023-05-09T17:36:01.732Z,8.07
2023-05-09T17:38:34.256Z,9.60
2023-05-09T17:41:04.569Z,5.67
2023-05-09T17:43:34.440Z,4.07
2023-05-09T17:46:01.242Z,5.40
2023-05-09T17:48:32.953Z,4.30
2023-05-09T17:51:04.544Z,5.23
2023-05-09T17:53:34.337Z,5.50
2023-05-09T17:56:06.746Z,7.90
2023-05-09T17:58:38.188Z,9.20
2023-05-09T18:01:07.476Z,8.17
2023-05-09T18:03:39.448Z,7.60
2023-05-09T18:06:08.628Z,7.93
2023-05-09T18:08:40.721Z,4.97
2023-05-09T18:11:15.326Z,4.03
2023-05-09T18:13:42.153Z,5.43
2023-05-09T18:16:15.912Z,3.87
2023-05-09T18:18:47.340Z,5.70
2023-05-09T18:21:14.657Z,5.07
2023-05-09T18:23:41.670Z,5.20
2023-05-09T18:26:13.267Z,3.87
2023-05-09T18:28:40.052Z,4.37
2023-05-09T18:31:09.667Z,7.17
2023-05-09T18:33:39.762Z,6.03
2023-05-09T18:36:15.240Z,4.50
2023-05-09T18:38:44.757Z,6.70
2023-05-09T18:41:12.619Z,6.97
2023-05-09T18:43:47.468Z,5.30
2023-05-09T18:46:18.091Z,4.13
2023-05-09T18:48:54.407Z,4.63
2023-05-09T18:51:28.979Z,4.03
2023-05-09T18:54:03.373Z,6.20
2023-05-09T18:56:39.359Z,5.20
2023-05-09T18:59:12.088Z,7.07
2023-05-09T19:01:42.861Z,4.27
2023-05-09T19:04:14.267Z,5.50
2023-05-09T19:06:44.281Z,5.17
2023-05-09T19:09:16.125Z,4.67
2023-05-09T19:11:47.884Z,6.27
2023-05-09T19:14:22.928Z,3.60
2023-05-09T19:16:54.535Z,4.57
2023-05-09T19:19:23.682Z,4.37
2023-05-09T19:21:52.786Z,4.40
2023-05-09T19:24:24.737Z,4.50
2023-05-09T19:26:53.759Z,3.33
2023-05-09T19:29:20.528Z,4.50
2023-05-09T19:31:49.582Z,4.50
2023-05-09T19:34:20.927Z,5.40
2023-05-09T19:36:52.451Z,6.00
2023-05-09T19:39:23.984Z,4.93
2023-05-09T19:41:53.172Z,4.40
2023-05-09T19:44:20.076Z,5.07
2023-05-09T19:46:49.257Z,6.60
2023-05-09T19:49:21.066Z,5.17
2023-05-09T19:51:55.267Z,4.87
2023-05-09T19:54:31.299Z,5.33
2023-05-09T19:57:06.413Z,4.50
2023-05-09T19:59:35.549Z,4.33
2023-05-09T20:02:02.578Z,4.17
2023-05-09T20:04:37.843Z,3.90
2023-05-09T20:07:10.022Z,4.93
2023-05-09T20:09:44.854Z,5.80
2023-05-09T20:12:13.249Z,4.03
2023-05-09T20:14:44.859Z,5.53
2023-05-09T20:17:16.934Z,4.70
2023-05-09T20:19:48.784Z,4.47
2023-05-09T20:22:15.646Z,3.70
2023-05-09T20:24:42.482Z,4.27
2023-05-09T20:27:11.518Z,5.07
2023-05-09T20:29:43.171Z,4.70
2023-05-09T20:32:14.867Z,4.33
2023-05-09T20:34:47.122Z,5.43
2023-05-09T20:37:18.610Z,3.67
2023-05-09T20:39:50.857Z,4.60
2023-05-09T20:42:20.689Z,4.07
2023-05-09T20:44:51.675Z,4.27
2023-05-09T20:47:20.904Z,4.20
2023-05-09T20:49:47.749Z,4.57
2023-05-09T20:52:16.805Z,8.60
2023-05-09T20:54:52.944Z,6.70
2023-05-09T20:57:19.752Z,7.03
2023-05-09T20:59:46.644Z,8.30
2023-05-09T21:02:13.865Z,5.40
2023-05-09T21:04:40.784Z,5.27
2023-05-09T21:07:07.683Z,5.60
2023-05-09T21:09:39.377Z,4.67
2023-05-09T21:12:11.556Z,4.43
2023-05-09T21:14:46.101Z,7.40
2023-05-09T21:17:15.545Z,6.33
2023-05-09T21:19:45.824Z,5.60
2023-05-09T21:22:15.138Z,5.53
2023-05-09T21:24:41.955Z,5.90
2023-05-09T21:27:08.731Z,10.83
2023-05-09T21:29:35.579Z,7.93
2023-05-09T21:32:06.967Z,7.17
2023-05-09T21:34:33.787Z,5.57
2023-05-09T21:37:02.954Z,5.00
2023-05-09T21:39:33.579Z,5.50
2023-05-09T21:42:00.482Z,5.53
2023-05-09T21:44:31.648Z,5.20
2023-05-09T21:47:01.238Z,3.03
2023-05-09T21:49:30.560Z,3.60
2023-05-09T21:51:57.384Z,2.20
2023-05-09T21:54:24.228Z,2.27
2023-05-09T21:56:51.067Z,2.13
2023-05-09T21:59:24.972Z,1.90
2023-05-09T22:01:56.789Z,2.93
2023-05-09T22:04:23.674Z,1.10
2023-05-09T22:06:55.379Z,0.90
2023-05-09T22:09:24.952Z,0.90
2023-05-09T22:11:53.060Z,1.20
2023-05-09T22:14:19.896Z,1.30
2023-05-09T22:16:46.818Z,0.80
2023-05-09T22:19:16.051Z,1.17
2023-05-09T22:21:45.556Z,3.13
2023-05-09T22:24:14.782Z,3.53
2023-05-09T22:26:46.554Z,1.30
2023-05-09T22:29:16.631Z,0.80
2023-05-09T22:31:46.394Z,1.73
2023-05-09T22:34:13.236Z,1.80
2023-05-09T22:36:41.846Z,1.33
2023-05-09T22:39:08.701Z,1.40
2023-05-09T22:41:37.812Z,1.30
2023-05-09T22:44:09.793Z,1.77
2023-05-09T22:46:38.957Z,0.87
2023-05-09T22:49:09.089Z,0.93
2023-05-09T22:51:40.550Z,1.27
2023-05-09T22:54:09.898Z,0.80
2023-05-09T22:56:36.876Z,1.53
2023-05-09T22:59:05.883Z,0.70
2023-05-09T23:01:32.844Z,2.70
2023-05-09T23:04:02.007Z,4.10
2023-05-09T23:06:28.924Z,0.87
2023-05-09T23:08:55.714Z,2.60
2023-05-09T23:11:25.803Z,1.10
2023-05-09T23:13:55.133Z,1.17
2023-05-09T23:16:24.372Z,0.80
2023-05-09T23:18:54.218Z,1.00
2023-05-09T23:21:21.195Z,1.00
2023-05-09T23:23:50.229Z,0.80
2023-05-09T23:26:19.296Z,0.93
2023-05-09T23:28:48.220Z,1.50
2023-05-09T23:31:15.036Z,1.50
2023-05-09T23:33:41.905Z,1.30
2023-05-09T23:36:11.560Z,1.00
2023-05-09T23:38:38.442Z,1.30
2023-05-09T23:41:05.319Z,1.50
2023-05-09T23:43:34.789Z,1.57
2023-05-09T23:46:02.087Z,1.47
2023-05-09T23:48:31.616Z,1.00
2023-05-09T23:51:00.759Z,0.97
2023-05-09T23:53:31.569Z,1.00
2023-05-09T23:55:58.477Z,2.07
2023-05-09T23:58:25.231Z,1.30
